Mesquite's Hourly Summary for Sunday, March 19, 2017
Hour Temp
(f)
RH
(%)
Solar Rad.
(MJ/m2)
Rainfall
(in)
Wind
(mph)
3/19/2017 12:00 AM 68 73 0 0 2.64
3/19/2017 1:00 AM 66 80 0 0 2.26
3/19/2017 2:00 AM 65 83 0 0 2.62
3/19/2017 3:00 AM 64 85 0 0 3.18
3/19/2017 4:00 AM 64 89 0 0 3.24
3/19/2017 5:00 AM 63 91 0 0 3.7
3/19/2017 6:00 AM 62 94 0 0 3.69
3/19/2017 7:00 AM 63 95 0 0 4.24
3/19/2017 8:00 AM 63 98 0.03 0 4.08
3/19/2017 9:00 AM 65 93 0.45 0 5.9
3/19/2017 10:00 AM 67 89 0.82 0 7.06
3/19/2017 11:00 AM 68 85 0.77 0 5.67
3/19/2017 12:00 PM 69 72 1.46 0 7.8
3/19/2017 1:00 PM 73 65 2.3 0 7.66
3/19/2017 2:00 PM 76 58 2.77 0 8.66
3/19/2017 3:00 PM 79 53 3.02 0 9.04
3/19/2017 4:00 PM 80 54 2.55 0 10.36
3/19/2017 5:00 PM 80 52 2.05 0 10.04
3/19/2017 6:00 PM 80 52 1.44 0 9.87
3/19/2017 7:00 PM 79 53 0.57 0 9.25
3/19/2017 8:00 PM 76 56 0.07 0 7.43
3/19/2017 9:00 PM 74 61 0 0 6.57
3/19/2017 10:00 PM 73 62 0 0 7.36
3/19/2017 11:00 PM 72 64 0 0 6.85
Data Summary 70 73 18.30 0.00 6.22